Cheyenne, WY (82009)

6:24 PM MDT on September 02, 2014 (GMT -0600)
North Star | Change Station
CLOSE
Current Station
Personal Weather Station
Location: Cheyenne, WY
Elevation: 6158 ft
Nearby Weather Stations
Active Advisory: Fire Weather Watch

Elev 6158 ft 41.25 °N, 104.80 °W | Updated 2 minutes ago

Clear
Clear
76.8 °F
Feels Like 78 °F
N
6.3
Wind Variable Wind from South

Today
High -- | Low -- °F
--% Chance of Precip.
Yesterday
High -- | Low -- °F
Precip. -- in
6:26 AM 7:30 PM
First Quarter, 56% visible
Pressure 29.79 in
Visibility 10.0 miles
Clouds Few 12000 ft
Heat Index 78 °F
Dew Point 46 °F
Humidity 34%
Rainfall 0.00 in
Snow Depth Not available.
UV 1 out of 12
Pollen 9.40 out of 12
Air Quality Not available.
Flu Activity Not available.
METAR KCYS 022353Z 20012G23KT 10SM FEW120 26/06 A3001 RMK AO2 SLP087 T02610056 10283 20228 56011

More Conditions Fewer Conditions

Pressure 29.79 in
Visibility 10.0 miles
Clouds Few 12000 ft
Heat Index 78 °F
Dew Point 46 °F
Humidity 34%
Rainfall 0.00 in
Snow Depth Not available.
UV 1 out of 12
Pollen 9.40 out of 12
Air Quality Not available.
Flu Activity Not available.
METAR KCYS 022353Z 20012G23KT 10SM FEW120 26/06 A3001 RMK AO2 SLP087 T02610056 10283 20228 56011

More Conditions Fewer Conditions

10-Day Weather Forecast

Almanac

Astronomy

Sep. 02, 2014 Rise Set
Actual Time 6:26 AM MDT 7:30 PM MDT
Civil Twilight 5:58 AM MDT 7:58 PM MDT
Nautical Twilight 5:24 AM MDT 8:32 PM MDT
Astronomical Twilight 4:48 AM MDT 9:07 PM MDT
Moon 2:17 PM MDT (9/2) No Moon Set
Length of Visible Light 14h 00m
Length of Day
13h 03m
Tomorrow will be 2m 40s shorter.
First Quarter, 56% of the Moon is Illuminated
Today
First Quarter
Sep 8
Full
Sep 15
Last Quarter
Sep 24
New
Oct 1
First Quarter

Today's Extremes

State Highs State Lows

Community

WunderPhotos

Upload Photos

1,749,816 photos uploaded!

Nearby

Snow Depth

Station Depth Elevation
Crow Creek 0 in 8330 ft
South Brush Creek 2 in 8440 ft
Sandstone R.S. 6 in 8150 ft
Big Sandy Opening 0 in 9080 ft
New Fork Lake 1 in 8340 ft

Earthquake Activity

City Distance Mag. Time & Date
No recent earthquake activity has been reported nearby.
Minimum magnitude displayed is 2.5.

Coastal Water Temperatures

Place Temperature
No Stations Reporting

Nearby Weather Stations